Time;durP1;ratioP1;P1;durP2;ratioP2;P2;SDS_P1;SDS_P2;PMS_P1;PMS_P2;Temp;Humidity;BMP_temperature;BMP_pressure;BME280_temperature;BME280_humidity;BME280_pressure;Samples;Min_cycle;Max_cycle;Signal;HPM_P1;HPM_P2
2023/07/27 00:01:13;;;;;;;5.03;3.77;;;14.30;99.90;;;13.89;77.55;100527.06;5069617;28;20240;-77
2023/07/27 00:03:42;;;;;;;4.50;3.50;;;14.30;99.90;;;13.94;77.68;100521.97;5068748;28;20212;-77
2023/07/27 00:06:10;;;;;;;4.53;3.83;;;14.30;99.90;;;13.93;77.61;100525.69;5070062;28;20222;-77
2023/07/27 00:08:38;;;;;;;5.00;3.50;;;14.40;99.90;;;13.96;77.39;100526.13;5068477;28;20300;-77
2023/07/27 00:11:06;;;;;;;5.10;3.50;;;14.40;99.90;;;13.88;77.19;100528.06;5069528;28;20212;-77
2023/07/27 00:13:35;;;;;;;4.87;3.40;;;14.30;99.90;;;14.00;77.17;100526.59;5066560;28;20728;-77
2023/07/27 00:16:04;;;;;;;6.03;3.60;;;14.30;99.90;;;14.07;76.57;100519.44;5069407;28;20308;-77
2023/07/27 00:18:32;;;;;;;4.40;3.53;;;14.50;99.90;;;14.10;76.20;100519.91;5069538;28;20214;-77
2023/07/27 00:21:00;;;;;;;4.63;3.57;;;14.60;99.90;;;14.13;75.95;100521.38;5069856;28;20304;-77
2023/07/27 00:23:28;;;;;;;3.77;3.37;;;14.60;99.90;;;14.14;75.60;100515.78;5069256;28;20736;-77
2023/07/27 00:25:57;;;;;;;5.80;3.90;;;14.50;99.90;;;14.15;76.15;100511.25;5062587;28;20312;-77
2023/07/27 00:28:25;;;;;;;5.00;3.63;;;14.50;99.90;;;14.15;75.41;100509.38;5069322;28;20632;-77
2023/07/27 00:30:55;;;;;;;3.93;3.43;;;14.50;99.90;;;14.13;75.67;100505.22;5069944;28;20208;-77
2023/07/27 00:33:23;;;;;;;5.87;3.70;;;14.50;99.90;;;14.12;75.60;100499.00;5069415;28;20228;-77
2023/07/27 00:35:55;;;;;;;7.37;3.67;;;14.10;99.90;;;14.09;75.69;100501.22;5068962;28;20314;-77
2023/07/27 00:38:23;;;;;;;6.17;3.80;;;14.50;99.90;;;14.06;76.08;100490.84;5069611;28;20284;-77
2023/07/27 00:40:52;;;;;;;3.43;2.97;;;14.40;99.90;;;14.08;75.64;100486.09;5068904;28;20717;-77
2023/07/27 00:43:20;;;;;;;4.27;3.40;;;14.50;99.90;;;14.10;75.84;100492.16;5069226;28;20632;-77
2023/07/27 00:45:50;;;;;;;4.33;3.47;;;14.50;99.90;;;14.15;75.44;100492.41;5067786;28;20348;-77
2023/07/27 00:48:21;;;;;;;4.97;3.60;;;14.50;99.90;;;14.20;75.31;100481.91;5068872;28;20255;-77
2023/07/27 00:50:51;;;;;;;5.00;3.47;;;14.60;99.90;;;14.15;75.21;100481.63;5069106;28;20749;-77
2023/07/27 00:53:20;;;;;;;5.10;3.60;;;14.50;99.90;;;14.13;74.77;100483.69;5068506;28;20297;-77
2023/07/27 00:55:48;;;;;;;4.50;3.90;;;14.50;99.90;;;14.04;74.96;100484.84;5052935;28;22102;-78
2023/07/27 00:58:17;;;;;;;4.50;3.33;;;14.40;99.90;;;14.06;75.10;100485.47;5070303;28;20289;-76
2023/07/27 01:00:45;;;;;;;6.30;4.40;;;14.40;99.90;;;13.99;75.18;100476.47;5069235;28;20316;-76
2023/07/27 01:03:13;;;;;;;5.63;3.70;;;14.30;99.90;;;13.90;75.03;100475.75;5069098;28;20212;-76
2023/07/27 01:05:43;;;;;;;6.00;4.33;;;14.30;99.90;;;13.94;75.64;100478.91;5068465;28;20222;-75
2023/07/27 01:08:11;;;;;;;4.23;3.40;;;14.30;99.90;;;13.86;75.20;100479.00;5069207;28;20237;-76
2023/07/27 01:10:53;;;;;;;7.30;3.63;;;14.10;99.90;;;13.89;75.92;100470.56;5068854;28;20255;-75
2023/07/27 01:13:32;;;;;;;7.60;3.70;;;14.20;99.90;;;13.91;75.11;100468.50;5050806;28;20736;-76
2023/07/27 01:16:09;;;;;;;5.40;3.67;;;14.30;99.90;;;13.90;75.42;100461.47;5057918;28;20222;-76
2023/07/27 01:18:56;;;;;;;6.13;4.30;;;14.20;99.90;;;13.90;75.24;100459.63;5050249;28;20213;-76
2023/07/27 01:21:33;;;;;;;5.70;4.40;;;14.20;99.90;;;13.89;75.25;100465.16;5054176;28;20253;-76
2023/07/27 01:24:55;;;;;;;5.93;3.90;;;14.30;99.90;;;13.90;74.78;100461.47;5060092;28;20224;-76
2023/07/27 01:27:43;;;;;;;5.50;4.17;;;14.20;99.90;;;13.90;74.74;100451.53;5056960;28;20630;-76
2023/07/27 01:30:54;;;;;;;6.07;4.20;;;14.30;99.90;;;13.84;75.03;100451.44;5060718;28;20229;-77
2023/07/27 01:33:31;;;;;;;5.90;4.40;;;14.20;99.90;;;13.79;75.36;100448.50;5057792;28;20231;-77
2023/07/27 01:36:08;;;;;;;6.43;4.30;;;14.10;99.90;;;13.80;75.39;100442.09;5057234;28;20261;-76
2023/07/27 01:38:40;;;;;;;4.70;4.10;;;14.10;99.90;;;13.78;75.29;100444.13;5050013;28;20209;-76
2023/07/27 01:41:11;;;;;;;4.80;4.27;;;14.10;99.90;;;13.80;75.17;100434.03;5056684;28;20669;-76
2023/07/27 01:43:42;;;;;;;6.87;4.23;;;14.20;99.90;;;13.81;75.60;100431.13;5059514;28;20268;-75
2023/07/27 01:46:13;;;;;;;5.80;4.33;;;14.20;99.90;;;13.80;75.21;100423.25;5064116;28;20250;-76
2023/07/27 01:48:44;;;;;;;6.00;4.53;;;14.20;99.90;;;13.75;75.74;100420.28;5058265;28;20202;-76
2023/07/27 01:51:15;;;;;;;6.57;4.40;;;14.10;99.90;;;13.75;75.90;100417.59;5063599;28;20198;-76
2023/07/27 01:53:46;;;;;;;5.47;4.63;;;14.10;99.90;;;13.75;75.50;100422.97;5048279;28;20245;-76
2023/07/27 01:56:15;;;;;;;5.00;4.33;;;14.10;99.90;;;13.69;75.56;100413.81;5056725;28;20257;-76
2023/07/27 01:58:46;;;;;;;4.80;4.27;;;14.00;99.90;;;13.69;76.01;100414.66;5056936;28;20210;-76
2023/07/27 02:01:16;;;;;;;5.20;4.70;;;14.00;99.90;;;13.67;75.75;100414.00;5054720;28;20321;-76
2023/07/27 02:03:44;;;;;;;5.27;4.10;;;14.00;99.90;;;13.71;75.49;100409.91;5049733;28;20248;-76
2023/07/27 02:06:13;;;;;;;7.00;4.77;;;14.10;99.90;;;13.70;74.97;100416.28;5048756;28;20317;-76
2023/07/27 02:08:41;;;;;;;4.97;4.10;;;14.10;99.90;;;13.69;75.47;100406.59;5048196;28;20224;-76
2023/07/27 02:11:15;;;;;;;5.07;4.23;;;14.00;99.90;;;13.69;75.21;100401.19;5057477;28;20289;-76
2023/07/27 02:13:52;;;;;;;6.73;4.27;;;14.10;99.90;;;13.64;75.31;100398.22;5049651;28;20241;-76
2023/07/27 02:16:33;;;;;;;4.93;4.43;;;14.00;99.90;;;13.66;75.28;100396.16;5055462;28;20727;-75
2023/07/27 02:19:06;;;;;;;5.73;4.70;;;14.00;99.90;;;13.60;75.94;100391.53;5048337;28;20297;-77
2023/07/27 02:21:36;;;;;;;5.70;4.33;;;14.00;99.90;;;13.57;75.95;100391.09;5048809;28;20244;-75
2023/07/27 02:24:06;;;;;;;5.30;4.80;;;13.90;99.90;;;13.53;75.52;100389.78;5054866;28;20212;-77
2023/07/27 02:26:35;;;;;;;8.20;5.17;;;13.80;99.90;;;13.49;76.12;100394.72;5051233;28;20309;-76
2023/07/27 02:29:03;;;;;;;6.63;4.97;;;13.80;99.90;;;13.48;75.71;100382.31;5053254;28;20212;-76
2023/07/27 02:31:33;;;;;;;6.10;5.13;;;13.80;99.90;;;13.48;76.34;100385.00;5059268;28;20293;-74
2023/07/27 02:34:01;;;;;;;7.03;5.23;;;13.90;99.90;;;13.51;76.09;100391.84;5048516;28;20209;-77
2023/07/27 02:36:29;;;;;;;5.37;4.57;;;13.90;99.90;;;13.53;76.06;100390.63;5048763;28;20229;-76
2023/07/27 02:38:57;;;;;;;7.03;5.00;;;13.90;99.90;;;13.47;76.87;100390.53;5056377;28;20684;-76
2023/07/27 02:41:26;;;;;;;7.40;5.07;;;13.90;99.90;;;13.47;75.87;100388.69;5052088;28;20257;-77
2023/07/27 02:43:54;;;;;;;5.83;5.23;;;14.00;99.90;;;13.43;76.19;100390.09;5050517;28;20236;-77
2023/07/27 02:46:22;;;;;;;6.27;4.97;;;13.80;99.90;;;13.43;76.46;100387.41;5053260;28;20677;-77
2023/07/27 02:48:53;;;;;;;5.50;4.73;;;13.70;99.90;;;13.43;76.73;100382.03;5056571;28;20237;-77
2023/07/27 02:51:21;;;;;;;6.77;5.13;;;13.80;99.90;;;13.44;77.01;100374.78;5048843;28;20309;-76
2023/07/27 02:53:49;;;;;;;6.07;5.00;;;13.80;99.90;;;13.43;76.74;100368.56;5056196;28;20216;-76
2023/07/27 02:56:17;;;;;;;7.20;5.00;;;13.80;99.90;;;13.42;76.90;100372.31;5050705;28;20222;-76
2023/07/27 02:58:45;;;;;;;6.67;4.73;;;13.80;99.90;;;13.41;77.27;100365.25;5057991;28;20642;-76
2023/07/27 03:01:13;;;;;;;6.60;5.20;;;13.80;99.90;;;13.37;76.47;100366.66;5048895;28;20313;-76
2023/07/27 03:03:42;;;;;;;8.33;5.13;;;13.70;99.90;;;13.39;76.44;100361.09;5047837;28;20621;-76
2023/07/27 03:06:11;;;;;;;7.23;5.43;;;13.80;99.90;;;13.35;76.74;100365.16;5048885;28;20226;-76
2023/07/27 03:08:39;;;;;;;6.10;5.10;;;13.70;99.90;;;13.34;77.33;100367.03;5049170;28;20300;-76
2023/07/27 03:11:07;;;;;;;5.27;4.63;;;13.70;99.90;;;13.31;77.41;100375.47;5052307;28;20293;-76
2023/07/27 03:13:35;;;;;;;5.13;4.63;;;13.70;99.90;;;13.31;77.92;100372.78;5055038;28;20217;-76
2023/07/27 03:16:05;;;;;;;7.07;4.87;;;13.70;99.90;;;13.31;76.63;100366.56;5056583;28;20271;-77
2023/07/27 03:18:34;;;;;;;5.23;4.73;;;13.70;99.90;;;13.28;77.26;100353.50;5055743;28;20210;-74
2023/07/27 03:21:04;;;;;;;6.10;4.80;;;13.70;99.90;;;13.26;77.46;100347.44;5059450;28;20737;-76
2023/07/27 03:23:34;;;;;;;9.87;4.93;;;13.60;99.90;;;13.25;77.76;100354.72;5058857;28;20655;-75
2023/07/27 03:26:09;;;;;;;6.67;5.10;;;13.60;99.90;;;13.19;77.54;100348.22;5052321;28;20249;-74
2023/07/27 03:28:37;;;;;;;5.27;4.77;;;13.60;99.90;;;13.16;78.43;100335.16;5060265;28;20233;-76
2023/07/27 03:31:18;;;;;;;5.77;4.80;;;13.50;99.90;;;13.15;78.15;100340.72;5064311;28;20586;-76
2023/07/27 03:33:47;;;;;;;5.43;4.73;;;13.50;99.90;;;13.14;78.34;100336.34;5059037;28;20205;-76
2023/07/27 03:36:17;;;;;;;6.93;5.30;;;13.50;99.90;;;13.13;77.94;100332.00;5059541;28;20236;-76
2023/07/27 03:38:47;;;;;;;6.67;4.60;;;13.50;99.90;;;13.09;78.15;100330.69;5052381;28;20205;-76
2023/07/27 03:41:16;;;;;;;8.43;5.20;;;13.50;99.90;;;13.08;78.13;100329.03;5056638;28;20227;-76
2023/07/27 03:43:44;;;;;;;6.23;4.87;;;13.50;99.90;;;13.06;78.62;100322.97;5053773;28;20929;-76
2023/07/27 03:46:12;;;;;;;6.00;4.93;;;13.50;99.90;;;13.06;77.78;100328.34;5062533;28;20275;-76
2023/07/27 03:48:41;;;;;;;5.83;4.80;;;13.50;99.90;;;13.06;78.38;100323.81;5053752;28;20309;-76
2023/07/27 03:51:09;;;;;;;7.07;4.70;;;13.50;99.90;;;13.11;77.90;100323.28;5052384;28;20198;-76
2023/07/27 03:53:38;;;;;;;7.23;5.13;;;13.50;99.90;;;13.04;79.40;100327.72;5052250;28;20275;-76
2023/07/27 03:56:09;;;;;;;5.60;5.00;;;13.40;99.90;;;13.06;78.81;100309.53;5056719;28;20225;-76
2023/07/27 03:58:37;;;;;;;5.80;5.20;;;13.50;99.90;;;13.07;78.60;100303.16;5054676;28;20230;-76
2023/07/27 04:01:05;;;;;;;6.43;5.10;;;13.50;99.90;;;13.10;78.32;100302.81;5051953;28;20236;-77
2023/07/27 04:03:33;;;;;;;6.27;4.93;;;13.50;99.90;;;13.10;78.88;100302.81;5051639;28;20585;-76
2023/07/27 04:06:02;;;;;;;5.50;5.00;;;13.50;99.90;;;13.11;78.69;100301.78;5051912;28;20674;-76
2023/07/27 04:08:30;;;;;;;6.80;4.87;;;13.50;99.90;;;13.12;78.82;100293.53;5052046;28;20297;-76
2023/07/27 04:10:58;;;;;;;5.70;5.10;;;13.60;99.90;;;13.12;79.11;100284.63;5051938;28;20234;-76
2023/07/27 04:13:28;;;;;;;6.03;4.97;;;13.70;99.90;;;13.12;78.52;100287.31;5054918;28;20234;-77
2023/07/27 04:15:56;;;;;;;8.10;4.97;;;13.60;99.90;;;13.14;79.35;100283.44;5051434;28;20261;-76
2023/07/27 04:18:24;;;;;;;6.73;4.93;;;13.60;99.90;;;13.17;79.12;100287.59;5052043;28;20252;-76
2023/07/27 04:20:52;;;;;;;6.37;4.70;;;13.60;99.90;;;13.18;79.07;100283.91;5054578;28;20237;-76
2023/07/27 04:23:20;;;;;;;7.67;5.37;;;13.70;99.90;;;13.20;79.20;100288.06;5056419;28;20290;-77
2023/07/27 04:25:48;;;;;;;5.10;4.60;;;13.70;99.90;;;13.22;79.69;100289.72;5051977;28;20222;-76
2023/07/27 04:28:16;;;;;;;6.03;4.47;;;13.70;99.90;;;13.24;78.78;100293.88;5051217;28;20276;-76
2023/07/27 04:30:46;;;;;;;6.17;5.23;;;13.70;99.90;;;13.26;79.31;100285.63;5052377;28;20248;-77
2023/07/27 04:33:14;;;;;;;6.43;4.37;;;13.70;99.90;;;13.27;79.69;100298.88;5051738;28;20198;-76
2023/07/27 04:35:42;;;;;;;4.63;4.23;;;13.70;99.90;;;13.27;79.33;100290.81;5050146;28;20256;-76
2023/07/27 04:38:10;;;;;;;5.20;4.37;;;13.80;99.90;;;13.30;80.17;100287.75;5051772;28;20861;-76
2023/07/27 04:40:38;;;;;;;7.20;4.40;;;13.80;99.90;;;13.30;80.46;100277.00;5058866;28;20275;-76
2023/07/27 04:43:06;;;;;;;6.83;4.73;;;13.80;99.90;;;13.32;79.98;100277.63;5054589;28;20316;-76
2023/07/27 04:45:35;;;;;;;5.77;5.17;;;13.80;99.90;;;13.33;80.19;100271.25;5054745;28;20804;-76
2023/07/27 04:48:06;;;;;;;6.00;4.70;;;13.80;99.90;;;13.36;79.87;100270.03;5059025;28;20214;-76
2023/07/27 04:50:36;;;;;;;6.00;4.60;;;13.80;99.90;;;13.39;80.60;100267.78;5052060;28;20210;-76
2023/07/27 04:53:04;;;;;;;5.20;4.70;;;13.60;99.90;;;13.40;80.02;100264.09;5051193;28;20202;-76
2023/07/27 04:55:32;;;;;;;5.57;4.50;;;13.90;99.90;;;13.44;80.68;100267.22;5051532;28;20226;-77
2023/07/27 04:58:01;;;;;;;5.47;4.70;;;13.90;99.90;;;13.43;80.69;100261.00;5059191;28;20234;-75
2023/07/27 05:00:29;;;;;;;5.30;4.80;;;14.00;99.90;;;13.47;81.33;100250.72;5050503;28;20245;-75
2023/07/27 05:02:59;;;;;;;5.80;4.53;;;14.00;99.90;;;13.50;80.58;100244.94;5051375;28;20312;-76
2023/07/27 05:05:28;;;;;;;5.00;4.50;;;14.00;99.90;;;13.52;80.91;100254.50;5057484;28;20221;-75
2023/07/27 05:07:56;;;;;;;6.50;4.47;;;14.00;99.90;;;13.55;80.96;100245.22;5060641;28;20213;-76
2023/07/27 05:10:25;;;;;;;5.20;4.70;;;14.10;99.90;;;13.58;81.53;100247.53;5055698;28;20256;-77
2023/07/27 05:12:53;;;;;;;5.50;3.93;;;14.10;99.90;;;13.59;81.26;100238.44;5054715;28;20197;-77
2023/07/27 05:15:21;;;;;;;8.40;5.23;;;14.10;99.90;;;13.62;82.00;100240.75;5051086;28;20237;-77
2023/07/27 05:17:49;;;;;;;6.80;4.70;;;14.10;99.90;;;13.64;82.39;100236.00;5051701;28;20293;-76
2023/07/27 05:20:17;;;;;;;5.60;4.63;;;14.10;99.90;;;13.66;82.38;100232.06;5050761;28;20695;-76
2023/07/27 05:22:47;;;;;;;4.60;4.20;;;14.20;99.90;;;13.68;81.98;100238.13;5059919;28;20316;-75
2023/07/27 05:25:16;;;;;;;5.30;4.30;;;14.20;99.90;;;13.73;82.68;100240.22;5054963;28;20222;-76
2023/07/27 05:27:44;;;;;;;6.70;4.33;;;14.30;99.90;;;13.75;83.06;100237.34;5051656;28;20293;-76
2023/07/27 05:30:12;;;;;;;5.70;4.33;;;14.30;99.90;;;13.76;82.31;100234.47;5058539;28;20292;-75
2023/07/27 05:32:40;;;;;;;4.77;4.30;;;14.30;99.90;;;13.79;82.63;100252.06;5052826;28;20829;-76
2023/07/27 05:35:09;;;;;;;5.27;4.20;;;14.40;99.90;;;13.80;82.41;100257.25;5050487;28;20727;-77
2023/07/27 05:37:38;;;;;;;6.30;4.33;;;14.40;99.90;;;13.83;82.01;100250.66;5051419;28;20713;-74
2023/07/27 05:40:09;;;;;;;5.60;4.07;;;14.40;99.90;;;13.87;81.76;100251.94;5051104;28;20263;-77
2023/07/27 05:42:38;;;;;;;5.00;4.50;;;14.40;99.90;;;13.88;81.59;100256.28;5062523;28;20319;-75
2023/07/27 05:45:08;;;;;;;5.43;4.33;;;14.40;99.90;;;13.90;81.35;100254.25;5057380;28;20230;-76
2023/07/27 05:47:36;;;;;;;4.53;4.13;;;14.50;99.90;;;13.92;81.53;100250.34;5059425;28;20252;-76
2023/07/27 05:50:06;;;;;;;5.97;4.30;;;14.10;99.90;;;13.98;81.32;100246.03;5050747;28;20567;-76
2023/07/27 05:52:34;;;;;;;6.27;4.43;;;14.50;99.90;;;14.00;80.70;100250.22;5051570;28;20247;-76
2023/07/27 05:55:02;;;;;;;5.07;4.30;;;14.60;99.90;;;14.02;80.89;100250.00;5057285;28;20322;-75
2023/07/27 05:57:32;;;;;;;5.40;3.97;;;14.60;99.90;;;14.04;80.30;100248.75;5050840;28;20726;-76
2023/07/27 06:00:00;;;;;;;5.20;3.90;;;14.60;99.90;;;14.07;79.92;100247.56;5050735;28;20229;-76
2023/07/27 06:02:35;;;;;;;5.73;4.20;;;14.60;99.90;;;14.13;79.59;100241.41;5051099;28;20295;-76
2023/07/27 06:05:11;;;;;;;7.20;3.90;;;14.70;99.90;;;14.18;80.04;100249.72;5056472;28;20272;-76
2023/07/27 06:07:40;;;;;;;4.87;4.03;;;14.70;99.90;;;14.20;79.82;100247.66;5051387;28;20202;-76
2023/07/27 06:10:09;;;;;;;6.23;3.90;;;14.80;99.90;;;14.23;79.80;100258.88;5050456;28;20209;-76
2023/07/27 06:12:41;;;;;;;4.07;3.60;;;14.80;99.90;;;14.31;79.16;100257.91;5061780;28;20229;-75
2023/07/27 06:15:12;;;;;;;6.83;3.90;;;14.90;99.90;;;14.30;79.21;100267.00;5049977;28;20724;-75
2023/07/27 06:17:43;;;;;;;4.80;3.77;;;14.90;99.90;;;14.34;79.20;100259.41;5051180;28;20586;-76
2023/07/27 06:20:12;;;;;;;4.10;3.70;;;14.90;99.90;;;14.35;79.30;100251.09;5057529;28;20212;-76
2023/07/27 06:22:40;;;;;;;4.33;3.47;;;14.90;99.90;;;14.38;79.18;100260.69;5050899;28;20826;-76
2023/07/27 06:25:09;;;;;;;5.27;3.50;;;15.00;99.90;;;14.40;78.84;100256.75;5050890;28;20226;-76
2023/07/27 06:27:37;;;;;;;6.03;3.80;;;15.00;99.90;;;14.41;78.95;100250.34;5064695;28;20206;-77
2023/07/27 06:30:09;;;;;;;4.80;3.50;;;15.00;99.90;;;14.43;78.72;100253.66;5056352;28;20297;-76
2023/07/27 06:32:37;;;;;;;4.33;3.90;;;15.00;99.90;;;14.44;79.18;100249.94;5051414;28;20292;-76
2023/07/27 06:35:07;;;;;;;5.90;3.37;;;15.00;99.90;;;14.44;78.68;100239.19;5056954;28;20225;-77
2023/07/27 06:37:35;;;;;;;4.77;3.53;;;15.00;99.90;;;14.48;78.88;100242.31;5051006;28;20271;-76
2023/07/27 06:40:05;;;;;;;6.57;3.43;;;15.00;99.90;;;14.49;78.37;100235.88;5057307;28;20256;-76
2023/07/27 06:42:39;;;;;;;7.97;3.30;;;15.10;99.90;;;14.55;77.70;100235.94;5054830;28;20261;-76
2023/07/27 06:45:11;;;;;;;5.87;3.90;;;15.80;99.90;;;14.59;77.72;100223.72;5053134;28;20299;-76
2023/07/27 06:47:40;;;;;;;9.07;3.87;;;14.80;99.90;;;14.63;77.49;100227.66;5055532;28;20208;-76
2023/07/27 06:50:09;;;;;;;6.27;3.60;;;15.20;99.90;;;14.65;77.51;100219.41;5053454;28;20202;-75
2023/07/27 06:52:37;;;;;;;6.83;4.00;;;15.20;99.90;;;14.70;76.95;100227.72;5055727;28;20210;-75
2023/07/27 06:55:07;;;;;;;7.83;4.00;;;15.30;99.90;;;14.70;77.95;100233.09;5057517;28;20247;-76
2023/07/27 06:57:35;;;;;;;5.40;3.83;;;15.30;99.90;;;14.76;78.09;100231.50;5059127;28;20305;-77
2023/07/27 07:00:06;;;;;;;8.43;3.80;;;15.30;99.90;;;14.79;77.55;100237.31;5054441;28;20208;-77
2023/07/27 07:02:35;;;;;;;6.20;4.07;;;15.40;99.90;;;14.88;77.04;100232.56;5054986;28;20229;-76
2023/07/27 07:05:04;;;;;;;5.27;3.57;;;15.40;99.90;;;14.91;77.58;100232.16;5057196;28;20235;-74
2023/07/27 07:07:32;;;;;;;8.17;3.70;;;15.50;99.90;;;14.99;76.49;100232.00;5058085;28;20212;-76
2023/07/27 07:10:01;;;;;;;5.73;4.20;;;15.50;99.90;;;15.00;76.83;100230.97;5058687;28;20247;-76
2023/07/27 07:12:29;;;;;;;7.67;3.80;;;15.60;99.90;;;14.98;77.30;100235.72;5060552;28;20263;-75
2023/07/27 07:14:57;;;;;;;8.93;4.13;;;15.60;99.90;;;15.02;76.97;100226.22;5053570;28;20221;-77
2023/07/27 07:17:26;;;;;;;6.47;3.77;;;15.60;99.90;;;15.07;76.44;100235.34;5054763;28;20206;-77
2023/07/27 07:19:56;;;;;;;6.63;4.00;;;15.60;99.90;;;15.08;76.36;100231.63;5056248;28;20216;-76
2023/07/27 07:22:24;;;;;;;6.03;3.73;;;15.60;99.90;;;15.11;76.52;100227.69;5058677;28;20665;-77
2023/07/27 07:24:52;;;;;;;4.23;3.40;;;15.60;99.90;;;15.08;77.18;100234.31;5055698;28;20772;-75
2023/07/27 07:27:20;;;;;;;7.03;3.50;;;15.70;99.90;;;15.11;76.76;100224.97;5054360;28;20579;-76
2023/07/27 07:29:48;;;;;;;7.57;3.87;;;15.60;99.90;;;15.11;76.55;100224.97;5055361;28;20237;-76
2023/07/27 07:32:17;;;;;;;5.90;3.60;;;15.70;99.90;;;15.11;77.06;100224.97;5054364;28;20289;-77
2023/07/27 07:34:45;;;;;;;4.20;3.47;;;15.70;99.90;;;15.13;77.06;100218.38;5054526;28;20720;-76
2023/07/27 07:37:14;;;;;;;5.67;4.10;;;15.70;99.90;;;15.15;77.08;100221.69;5058546;28;20205;-76
2023/07/27 07:39:43;;;;;;;6.23;3.93;;;15.70;99.90;;;15.14;78.27;100214.63;5056523;28;20284;-75
2023/07/27 07:42:11;;;;;;;6.17;4.07;;;15.70;99.90;;;15.12;78.54;100214.00;5058439;28;20284;-76
2023/07/27 07:44:39;;;;;;;6.67;3.70;;;15.60;99.90;;;15.10;78.67;100212.56;5060931;28;20694;-76
2023/07/27 07:47:07;;;;;;;6.27;3.80;;;15.60;99.90;;;15.09;79.60;100205.50;5056245;28;20202;-76
2023/07/27 07:49:35;;;;;;;6.40;4.03;;;15.60;99.90;;;15.09;80.17;100208.19;5057790;28;20202;-77
2023/07/27 07:52:04;;;;;;;4.93;3.80;;;15.60;99.90;;;15.04;79.96;100203.41;5056967;28;20290;-75
2023/07/27 07:54:34;;;;;;;5.93;4.10;;;15.60;99.90;;;15.02;81.17;100197.38;5056272;28;20244;-76
2023/07/27 07:57:02;;;;;;;4.27;3.83;;;15.60;99.90;;;15.02;81.95;100199.25;5054453;28;20238;-75
2023/07/27 07:59:30;;;;;;;5.67;4.13;;;15.50;99.90;;;15.00;82.66;100206.72;5054196;28;20293;-75
2023/07/27 08:01:58;;;;;;;7.10;4.67;;;15.50;99.90;;;15.01;82.88;100194.88;5055072;28;20232;-74
2023/07/27 08:04:27;;;;;;;6.47;4.00;;;15.50;99.90;;;15.01;83.45;100182.25;5054244;28;20706;-75
2023/07/27 08:06:55;;;;;;;6.87;4.00;;;15.50;99.90;;;15.00;82.41;100195.94;5053475;28;20206;-75
2023/07/27 08:09:24;;;;;;;5.80;4.17;;;15.50;99.90;;;15.00;82.56;100190.53;5052287;28;20916;-76
2023/07/27 08:11:54;;;;;;;4.20;3.60;;;15.50;99.90;;;15.02;83.23;100181.22;5056216;28;20292;-76
2023/07/27 08:14:24;;;;;;;5.53;3.90;;;15.50;99.90;;;15.03;83.48;100177.50;5053390;28;20206;-75
2023/07/27 08:16:52;;;;;;;5.73;3.67;;;15.50;99.90;;;15.08;83.08;100172.31;5054767;28;20206;-76
2023/07/27 08:19:20;;;;;;;4.10;3.43;;;15.60;99.90;;;15.11;83.62;100165.66;5051900;28;20206;-76
2023/07/27 08:21:48;;;;;;;5.77;3.90;;;15.60;99.90;;;15.15;84.44;100158.84;5062470;28;20263;-75
2023/07/27 08:24:19;;;;;;;7.33;4.03;;;15.60;99.90;;;15.18;84.05;100161.97;5054435;28;20265;-76
2023/07/27 08:26:49;;;;;;;5.43;4.10;;;15.70;99.90;;;15.22;84.33;100162.38;5055114;28;20206;-76
2023/07/27 08:29:19;;;;;;;6.23;3.70;;;15.80;99.90;;;15.23;84.21;100153.28;5053289;28;20224;-76
2023/07/27 08:31:47;;;;;;;5.03;4.53;;;15.80;99.90;;;15.27;84.48;100149.13;5057459;28;20300;-76
2023/07/27 08:34:15;;;;;;;5.03;3.97;;;15.80;99.90;;;15.31;85.01;100160.34;5053157;28;20286;-76
2023/07/27 08:36:43;;;;;;;8.47;4.83;;;15.80;99.90;;;15.33;84.84;100148.31;5055119;28;20639;-75
2023/07/27 08:39:11;;;;;;;5.77;4.03;;;15.90;99.90;;;15.36;83.85;100147.91;5053508;28;20202;-76
2023/07/27 08:41:40;;;;;;;5.03;3.97;;;15.90;99.90;;;15.37;84.26;100137.94;5058642;28;20576;-76
2023/07/27 08:44:09;;;;;;;5.03;4.17;;;15.90;99.90;;;15.38;84.37;100129.63;5053191;28;20222;-76
2023/07/27 08:46:39;;;;;;;5.93;4.00;;;15.90;99.90;;;15.40;83.37;100127.56;5053866;28;20252;-75
2023/07/27 08:49:09;;;;;;;7.73;3.90;;;15.90;99.90;;;15.42;84.15;100114.69;5053916;28;20198;-76
2023/07/27 08:51:40;;;;;;;4.60;4.20;;;15.90;99.90;;;15.43;84.07;100107.44;5058146;28;20216;-77
2023/07/27 08:54:08;;;;;;;7.60;3.90;;;16.00;99.90;;;15.44;83.56;100112.63;5059344;28;20282;-76
2023/07/27 08:56:36;;;;;;;5.17;3.93;;;15.90;99.90;;;15.44;83.38;100111.81;5053743;28;20257;-75
2023/07/27 08:59:04;;;;;;;9.33;4.80;;;15.90;99.90;;;15.45;83.65;100114.28;5053110;28;20281;-76
2023/07/27 09:01:33;;;;;;;4.37;3.90;;;16.00;99.90;;;15.45;83.85;100099.94;5053956;28;20230;-76
2023/07/27 09:04:02;;;;;;;5.87;4.37;;;15.90;99.90;;;15.47;83.27;100101.44;5053842;28;20222;-76
2023/07/27 09:06:39;;;;;;;4.93;4.23;;;16.00;99.90;;;15.49;83.74;100091.28;5052686;28;20261;-75
2023/07/27 09:09:16;;;;;;;6.47;4.10;;;16.00;99.90;;;15.47;82.91;100090.63;5060338;28;20275;-76
2023/07/27 09:11:46;;;;;;;6.23;4.10;;;15.90;99.90;;;15.50;84.62;100092.94;5057700;28;20233;-75
2023/07/27 09:14:16;;;;;;;4.37;3.97;;;16.00;99.90;;;15.51;84.99;100086.53;5052915;28;20476;-74
2023/07/27 09:16:45;;;;;;;5.77;3.73;;;16.00;99.90;;;15.54;85.41;100080.72;5053654;28;20238;-76
2023/07/27 09:19:18;;;;;;;7.10;4.90;;;16.00;99.90;;;15.56;85.16;100088.56;5064532;28;20206;-76
2023/07/27 09:21:49;;;;;;;4.63;4.00;;;16.10;99.90;;;15.58;85.05;100086.53;5056647;28;20237;-76
2023/07/27 09:24:18;;;;;;;6.53;4.40;;;16.10;99.90;;;15.59;84.97;100078.19;5057647;28;20279;-76
2023/07/27 09:26:48;;;;;;;6.93;4.53;;;16.10;99.90;;;15.59;84.38;100078.19;5061222;28;20743;-77
2023/07/27 09:29:18;;;;;;;5.23;4.00;;;16.10;99.90;;;15.59;84.21;100078.19;5053131;28;20291;-75
2023/07/27 09:31:48;;;;;;;6.27;4.10;;;16.10;99.90;;;15.60;83.75;100073.63;5057286;28;20206;-75
2023/07/27 09:34:20;;;;;;;4.37;3.90;;;16.10;99.90;;;15.64;84.01;100081.13;5050043;28;20198;-74
2023/07/27 09:36:48;;;;;;;11.60;8.57;;;16.10;99.90;;;15.66;84.82;100073.63;5054494;28;20260;-76
2023/07/27 09:39:17;;;;;;;7.67;4.57;;;16.10;99.90;;;15.69;85.15;100070.50;5052822;28;20256;-76
2023/07/27 09:41:47;;;;;;;5.20;4.20;;;16.20;99.90;;;15.71;84.81;100057.66;5057533;28;20665;-74
2023/07/27 09:44:17;;;;;;;9.17;4.73;;;16.20;99.90;;;15.73;84.77;100066.34;5056720;28;20700;-76
2023/07/27 09:46:46;;;;;;;4.70;3.80;;;16.20;99.90;;;15.76;84.85;100066.97;5055578;28;20276;-75
2023/07/27 09:49:16;;;;;;;7.03;4.00;;;16.30;99.90;;;15.79;84.43;100074.66;5058559;28;20234;-75
2023/07/27 09:51:46;;;;;;;9.37;4.40;;;16.30;99.90;;;15.81;84.23;100067.19;5054412;28;20684;-73
2023/07/27 09:54:15;;;;;;;6.10;3.63;;;16.30;99.90;;;15.82;84.50;100066.16;5052209;28;20205;-76
2023/07/27 09:56:44;;;;;;;5.00;4.07;;;16.30;99.90;;;15.84;85.75;100064.06;5054653;28;20257;-75
2023/07/27 09:59:14;;;;;;;6.90;4.40;;;16.30;99.90;;;15.83;85.89;100067.78;5052870;28;20252;-76
2023/07/27 10:01:42;;;;;;;5.73;4.33;;;16.30;99.90;;;15.80;86.44;100068.22;5054857;28;20357;-76
2023/07/27 10:04:10;;;;;;;5.10;4.60;;;16.30;99.90;;;15.77;86.26;100057.84;5052735;28;20198;-76
2023/07/27 10:06:38;;;;;;;5.70;4.57;;;16.30;99.90;;;15.76;87.18;100050.78;5054189;28;20301;-75
2023/07/27 10:09:21;;;;;;;6.43;4.67;;;16.20;99.90;;;15.76;87.67;100051.59;5053377;28;20288;-75
2023/07/27 10:12:00;;;;;;;7.67;5.10;;;16.20;99.90;;;15.73;88.97;100052.84;5055603;28;20565;-75
2023/07/27 10:14:30;;;;;;;7.90;4.77;;;16.20;99.90;;;15.68;88.70;100047.25;5058761;28;20712;-75
2023/07/27 10:17:01;;;;;;;4.80;4.30;;;16.10;99.90;;;15.67;88.89;100040.22;5052892;28;20213;-76
2023/07/27 10:19:41;;;;;;;7.23;4.80;;;16.10;99.90;;;15.65;88.92;100034.19;5052844;28;20260;-76
2023/07/27 10:22:13;;;;;;;4.90;4.50;;;16.10;99.90;;;15.67;89.30;100031.28;5058864;28;20204;-76
2023/07/27 10:24:52;;;;;;;5.50;5.00;;;16.10;99.90;;;15.60;89.54;100025.91;5054799;28;20234;-76